sensor_id;sensor_type;location;lat;lon;timestamp;P1;durP1;ratioP1;P2;durP2;ratioP2
28174;SDS011;59417;44.788;10.334;2023-01-06T00:00:03;49.25;;;30.83;;
28174;SDS011;59417;44.788;10.334;2023-01-06T00:02:37;71.18;;;32.58;;
28174;SDS011;59417;44.788;10.334;2023-01-06T00:05:03;47.15;;;31.00;;
28174;SDS011;59417;44.788;10.334;2023-01-06T00:07:29;45.53;;;30.55;;
28174;SDS011;59417;44.788;10.334;2023-01-06T00:10:14;58.55;;;35.13;;
28174;SDS011;59417;44.788;10.334;2023-01-06T00:13:01;69.28;;;34.03;;
28174;SDS011;59417;44.788;10.334;2023-01-06T00:15:26;56.45;;;34.65;;
28174;SDS011;59417;44.788;10.334;2023-01-06T00:17:54;47.47;;;31.63;;
28174;SDS011;59417;44.788;10.334;2023-01-06T00:20:23;60.90;;;34.88;;
28174;SDS011;59417;44.788;10.334;2023-01-06T00:22:49;58.70;;;35.05;;
28174;SDS011;59417;44.788;10.334;2023-01-06T00:25:15;63.10;;;36.83;;
28174;SDS011;59417;44.788;10.334;2023-01-06T00:27:45;59.10;;;35.88;;
28174;SDS011;59417;44.788;10.334;2023-01-06T00:30:11;66.88;;;37.85;;
28174;SDS011;59417;44.788;10.334;2023-01-06T00:32:38;56.38;;;36.03;;
28174;SDS011;59417;44.788;10.334;2023-01-06T00:35:07;83.90;;;39.50;;
28174;SDS011;59417;44.788;10.334;2023-01-06T00:37:36;60.88;;;38.10;;
28174;SDS011;59417;44.788;10.334;2023-01-06T00:40:05;66.60;;;38.40;;
28174;SDS011;59417;44.788;10.334;2023-01-06T00:42:31;75.82;;;38.75;;
28174;SDS011;59417;44.788;10.334;2023-01-06T00:45:00;61.70;;;36.08;;
28174;SDS011;59417;44.788;10.334;2023-01-06T00:47:27;76.05;;;37.13;;
28174;SDS011;59417;44.788;10.334;2023-01-06T00:49:54;62.05;;;37.58;;
28174;SDS011;59417;44.788;10.334;2023-01-06T00:52:27;64.80;;;37.72;;
28174;SDS011;59417;44.788;10.334;2023-01-06T00:54:54;57.83;;;36.28;;
28174;SDS011;59417;44.788;10.334;2023-01-06T00:57:20;61.38;;;36.08;;
28174;SDS011;59417;44.788;10.334;2023-01-06T00:59:49;61.20;;;38.60;;
28174;SDS011;59417;44.788;10.334;2023-01-06T01:02:17;62.72;;;37.55;;
28174;SDS011;59417;44.788;10.334;2023-01-06T01:04:46;60.95;;;37.25;;
28174;SDS011;59417;44.788;10.334;2023-01-06T01:07:11;65.35;;;37.50;;
28174;SDS011;59417;44.788;10.334;2023-01-06T01:09:38;59.75;;;36.92;;
28174;SDS011;59417;44.788;10.334;2023-01-06T01:12:06;67.25;;;36.35;;
28174;SDS011;59417;44.788;10.334;2023-01-06T01:14:55;64.40;;;38.40;;
28174;SDS011;59417;44.788;10.334;2023-01-06T01:17:50;67.25;;;37.00;;
28174;SDS011;59417;44.788;10.334;2023-01-06T01:20:16;59.47;;;36.85;;
28174;SDS011;59417;44.788;10.334;2023-01-06T01:22:42;52.78;;;34.30;;
28174;SDS011;59417;44.788;10.334;2023-01-06T01:25:17;67.15;;;36.20;;
28174;SDS011;59417;44.788;10.334;2023-01-06T01:27:43;68.90;;;38.63;;
28174;SDS011;59417;44.788;10.334;2023-01-06T01:30:27;65.20;;;36.03;;
28174;SDS011;59417;44.788;10.334;2023-01-06T01:33:03;54.83;;;34.08;;
28174;SDS011;59417;44.788;10.334;2023-01-06T01:35:29;64.65;;;38.35;;
28174;SDS011;59417;44.788;10.334;2023-01-06T01:37:55;62.28;;;36.55;;
28174;SDS011;59417;44.788;10.334;2023-01-06T01:40:22;60.20;;;37.88;;
28174;SDS011;59417;44.788;10.334;2023-01-06T01:42:48;62.95;;;38.30;;
28174;SDS011;59417;44.788;10.334;2023-01-06T01:45:25;62.72;;;37.95;;
28174;SDS011;59417;44.788;10.334;2023-01-06T01:47:58;53.92;;;35.28;;
28174;SDS011;59417;44.788;10.334;2023-01-06T01:50:31;64.15;;;38.05;;
28174;SDS011;59417;44.788;10.334;2023-01-06T01:53:06;60.05;;;36.72;;
28174;SDS011;59417;44.788;10.334;2023-01-06T01:55:35;59.35;;;37.30;;
28174;SDS011;59417;44.788;10.334;2023-01-06T01:58:07;63.03;;;36.50;;
28174;SDS011;59417;44.788;10.334;2023-01-06T02:00:38;61.35;;;36.60;;
28174;SDS011;59417;44.788;10.334;2023-01-06T02:03:07;65.00;;;38.33;;
28174;SDS011;59417;44.788;10.334;2023-01-06T02:05:36;55.85;;;36.33;;
28174;SDS011;59417;44.788;10.334;2023-01-06T02:08:09;53.88;;;34.47;;
28174;SDS011;59417;44.788;10.334;2023-01-06T02:10:53;59.03;;;38.10;;
28174;SDS011;59417;44.788;10.334;2023-01-06T02:13:19;64.20;;;36.92;;
28174;SDS011;59417;44.788;10.334;2023-01-06T02:16:01;62.28;;;37.75;;
28174;SDS011;59417;44.788;10.334;2023-01-06T02:25:09;69.40;;;38.05;;
28174;SDS011;59417;44.788;10.334;2023-01-06T02:28:00;62.97;;;36.95;;
28174;SDS011;59417;44.788;10.334;2023-01-06T02:34:33;65.45;;;38.28;;
28174;SDS011;59417;44.788;10.334;2023-01-06T02:51:57;61.25;;;34.90;;
28174;SDS011;59417;44.788;10.334;2023-01-06T02:54:42;60.13;;;33.42;;
28174;SDS011;59417;44.788;10.334;2023-01-06T03:00:23;57.42;;;33.10;;
28174;SDS011;59417;44.788;10.334;2023-01-06T03:03:16;64.25;;;32.78;;
28174;SDS011;59417;44.788;10.334;2023-01-06T03:05:47;55.17;;;31.60;;
28174;SDS011;59417;44.788;10.334;2023-01-06T03:08:24;51.72;;;30.50;;
28174;SDS011;59417;44.788;10.334;2023-01-06T03:10:55;59.80;;;30.48;;
28174;SDS011;59417;44.788;10.334;2023-01-06T03:13:39;53.22;;;31.05;;
28174;SDS011;59417;44.788;10.334;2023-01-06T03:19:33;59.85;;;33.03;;
28174;SDS011;59417;44.788;10.334;2023-01-06T03:22:17;58.25;;;29.85;;
28174;SDS011;59417;44.788;10.334;2023-01-06T03:24:51;57.63;;;30.85;;
28174;SDS011;59417;44.788;10.334;2023-01-06T03:27:22;62.65;;;32.50;;
28174;SDS011;59417;44.788;10.334;2023-01-06T03:29:51;57.67;;;31.17;;
28174;SDS011;59417;44.788;10.334;2023-01-06T03:32:26;57.13;;;33.17;;
28174;SDS011;59417;44.788;10.334;2023-01-06T03:47:52;63.92;;;33.50;;
28174;SDS011;59417;44.788;10.334;2023-01-06T03:56:57;62.63;;;33.30;;
28174;SDS011;59417;44.788;10.334;2023-01-06T03:59:38;68.82;;;35.25;;
28174;SDS011;59417;44.788;10.334;2023-01-06T04:02:07;66.88;;;34.80;;
28174;SDS011;59417;44.788;10.334;2023-01-06T04:04:35;64.30;;;34.25;;
28174;SDS011;59417;44.788;10.334;2023-01-06T04:07:02;68.10;;;36.85;;
28174;SDS011;59417;44.788;10.334;2023-01-06T04:09:28;73.32;;;36.88;;
28174;SDS011;59417;44.788;10.334;2023-01-06T04:12:10;69.00;;;36.85;;
28174;SDS011;59417;44.788;10.334;2023-01-06T04:15:13;71.60;;;37.67;;
28174;SDS011;59417;44.788;10.334;2023-01-06T04:17:46;75.43;;;37.92;;
28174;SDS011;59417;44.788;10.334;2023-01-06T04:20:25;72.22;;;36.92;;
28174;SDS011;59417;44.788;10.334;2023-01-06T04:23:12;73.03;;;36.33;;
28174;SDS011;59417;44.788;10.334;2023-01-06T04:25:40;59.40;;;34.45;;
28174;SDS011;59417;44.788;10.334;2023-01-06T04:28:13;61.85;;;34.60;;
28174;SDS011;59417;44.788;10.334;2023-01-06T04:30:40;60.10;;;35.22;;
28174;SDS011;59417;44.788;10.334;2023-01-06T04:33:12;67.82;;;37.22;;
28174;SDS011;59417;44.788;10.334;2023-01-06T04:35:43;64.53;;;35.75;;
28174;SDS011;59417;44.788;10.334;2023-01-06T04:38:10;60.95;;;36.22;;
28174;SDS011;59417;44.788;10.334;2023-01-06T04:40:37;64.13;;;35.92;;
28174;SDS011;59417;44.788;10.334;2023-01-06T04:43:03;64.07;;;37.67;;
28174;SDS011;59417;44.788;10.334;2023-01-06T04:45:29;64.57;;;35.60;;
28174;SDS011;59417;44.788;10.334;2023-01-06T04:47:55;63.38;;;38.13;;
28174;SDS011;59417;44.788;10.334;2023-01-06T04:50:24;56.72;;;36.90;;
28174;SDS011;59417;44.788;10.334;2023-01-06T04:52:51;63.42;;;37.10;;
28174;SDS011;59417;44.788;10.334;2023-01-06T04:55:19;62.05;;;35.33;;
28174;SDS011;59417;44.788;10.334;2023-01-06T04:57:46;58.42;;;37.35;;
28174;SDS011;59417;44.788;10.334;2023-01-06T05:00:19;64.40;;;36.60;;
28174;SDS011;59417;44.788;10.334;2023-01-06T05:02:48;68.05;;;37.88;;
28174;SDS011;59417;44.788;10.334;2023-01-06T05:05:15;74.80;;;37.85;;
28174;SDS011;59417;44.788;10.334;2023-01-06T05:07:49;62.78;;;36.88;;
28174;SDS011;59417;44.788;10.334;2023-01-06T05:10:30;65.22;;;36.47;;
28174;SDS011;59417;44.788;10.334;2023-01-06T05:12:58;66.90;;;35.90;;
28174;SDS011;59417;44.788;10.334;2023-01-06T05:15:25;63.15;;;37.53;;
28174;SDS011;59417;44.788;10.334;2023-01-06T05:17:50;64.28;;;38.33;;
28174;SDS011;59417;44.788;10.334;2023-01-06T05:20:16;66.60;;;38.08;;
28174;SDS011;59417;44.788;10.334;2023-01-06T05:22:42;67.70;;;38.40;;
28174;SDS011;59417;44.788;10.334;2023-01-06T05:25:08;71.80;;;39.95;;
28174;SDS011;59417;44.788;10.334;2023-01-06T05:27:34;70.47;;;39.60;;
28174;SDS011;59417;44.788;10.334;2023-01-06T05:30:00;75.35;;;40.15;;
28174;SDS011;59417;44.788;10.334;2023-01-06T05:32:26;76.50;;;41.83;;
28174;SDS011;59417;44.788;10.334;2023-01-06T05:34:55;71.80;;;40.70;;
28174;SDS011;59417;44.788;10.334;2023-01-06T05:37:20;73.95;;;39.95;;
28174;SDS011;59417;44.788;10.334;2023-01-06T05:39:49;83.47;;;46.08;;
28174;SDS011;59417;44.788;10.334;2023-01-06T05:42:16;89.43;;;45.33;;
28174;SDS011;59417;44.788;10.334;2023-01-06T05:44:54;86.80;;;43.15;;
28174;SDS011;59417;44.788;10.334;2023-01-06T05:47:23;84.82;;;45.58;;
28174;SDS011;59417;44.788;10.334;2023-01-06T05:49:49;98.10;;;45.95;;
28174;SDS011;59417;44.788;10.334;2023-01-06T05:52:15;90.40;;;44.95;;
28174;SDS011;59417;44.788;10.334;2023-01-06T05:54:41;88.50;;;44.88;;
28174;SDS011;59417;44.788;10.334;2023-01-06T05:57:10;94.00;;;47.15;;
28174;SDS011;59417;44.788;10.334;2023-01-06T05:59:36;93.78;;;45.30;;
28174;SDS011;59417;44.788;10.334;2023-01-06T06:02:02;94.65;;;46.22;;
28174;SDS011;59417;44.788;10.334;2023-01-06T06:07:23;79.47;;;43.95;;
28174;SDS011;59417;44.788;10.334;2023-01-06T06:09:49;88.10;;;46.60;;
28174;SDS011;59417;44.788;10.334;2023-01-06T06:12:50;85.00;;;43.58;;
28174;SDS011;59417;44.788;10.334;2023-01-06T06:15:17;88.57;;;44.30;;
28174;SDS011;59417;44.788;10.334;2023-01-06T06:20:15;88.22;;;43.55;;
28174;SDS011;59417;44.788;10.334;2023-01-06T06:22:41;101.90;;;48.35;;
28174;SDS011;59417;44.788;10.334;2023-01-06T06:25:16;92.68;;;47.03;;
28174;SDS011;59417;44.788;10.334;2023-01-06T06:27:47;92.65;;;45.53;;
28174;SDS011;59417;44.788;10.334;2023-01-06T06:30:22;97.80;;;47.28;;
28174;SDS011;59417;44.788;10.334;2023-01-06T06:32:48;98.90;;;47.97;;
28174;SDS011;59417;44.788;10.334;2023-01-06T06:35:14;87.88;;;47.03;;
28174;SDS011;59417;44.788;10.334;2023-01-06T06:37:40;96.78;;;48.75;;
28174;SDS011;59417;44.788;10.334;2023-01-06T06:40:06;89.88;;;46.15;;
28174;SDS011;59417;44.788;10.334;2023-01-06T06:42:32;103.30;;;49.85;;
28174;SDS011;59417;44.788;10.334;2023-01-06T06:45:01;112.07;;;51.50;;
28174;SDS011;59417;44.788;10.334;2023-01-06T06:47:27;93.70;;;46.53;;
28174;SDS011;59417;44.788;10.334;2023-01-06T06:49:54;91.75;;;47.70;;
28174;SDS011;59417;44.788;10.334;2023-01-06T06:52:20;102.05;;;50.92;;
28174;SDS011;59417;44.788;10.334;2023-01-06T06:54:46;100.97;;;50.72;;
28174;SDS011;59417;44.788;10.334;2023-01-06T06:57:14;98.38;;;48.33;;
28174;SDS011;59417;44.788;10.334;2023-01-06T06:59:40;92.07;;;48.40;;
28174;SDS011;59417;44.788;10.334;2023-01-06T07:02:11;88.90;;;46.15;;
28174;SDS011;59417;44.788;10.334;2023-01-06T07:04:40;87.93;;;45.20;;
28174;SDS011;59417;44.788;10.334;2023-01-06T07:07:24;96.57;;;47.95;;
28174;SDS011;59417;44.788;10.334;2023-01-06T07:09:49;89.75;;;47.05;;
28174;SDS011;59417;44.788;10.334;2023-01-06T07:14:44;99.60;;;43.45;;
28174;SDS011;59417;44.788;10.334;2023-01-06T07:17:10;88.78;;;43.75;;
28174;SDS011;59417;44.788;10.334;2023-01-06T07:19:36;91.38;;;44.58;;
28174;SDS011;59417;44.788;10.334;2023-01-06T07:23:03;88.75;;;42.03;;
28174;SDS011;59417;44.788;10.334;2023-01-06T07:25:26;86.07;;;41.50;;
28174;SDS011;59417;44.788;10.334;2023-01-06T07:27:57;95.00;;;42.45;;
28174;SDS011;59417;44.788;10.334;2023-01-06T07:30:29;81.40;;;38.72;;
28174;SDS011;59417;44.788;10.334;2023-01-06T07:33:02;94.72;;;40.97;;
28174;SDS011;59417;44.788;10.334;2023-01-06T07:35:28;83.65;;;39.72;;
28174;SDS011;59417;44.788;10.334;2023-01-06T07:37:54;85.78;;;39.88;;
28174;SDS011;59417;44.788;10.334;2023-01-06T07:40:27;83.18;;;39.08;;
28174;SDS011;59417;44.788;10.334;2023-01-06T07:42:53;94.60;;;40.35;;
28174;SDS011;59417;44.788;10.334;2023-01-06T07:45:19;86.22;;;38.42;;
28174;SDS011;59417;44.788;10.334;2023-01-06T07:47:45;79.80;;;38.30;;
28174;SDS011;59417;44.788;10.334;2023-01-06T07:50:11;95.00;;;39.92;;
28174;SDS011;59417;44.788;10.334;2023-01-06T07:52:37;87.93;;;42.40;;
28174;SDS011;59417;44.788;10.334;2023-01-06T07:55:15;95.82;;;42.08;;
28174;SDS011;59417;44.788;10.334;2023-01-06T07:57:41;88.53;;;40.08;;
28174;SDS011;59417;44.788;10.334;2023-01-06T08:00:07;85.70;;;41.47;;
28174;SDS011;59417;44.788;10.334;2023-01-06T08:02:52;95.97;;;41.58;;
28174;SDS011;59417;44.788;10.334;2023-01-06T08:05:56;91.03;;;41.38;;
28174;SDS011;59417;44.788;10.334;2023-01-06T08:09:11;91.07;;;40.80;;
28174;SDS011;59417;44.788;10.334;2023-01-06T08:11:50;89.60;;;40.67;;
28174;SDS011;59417;44.788;10.334;2023-01-06T08:17:28;95.90;;;41.35;;
28174;SDS011;59417;44.788;10.334;2023-01-06T08:20:18;108.95;;;45.70;;
28174;SDS011;59417;44.788;10.334;2023-01-06T08:22:53;92.18;;;42.53;;
28174;SDS011;59417;44.788;10.334;2023-01-06T08:25:25;86.82;;;40.25;;
28174;SDS011;59417;44.788;10.334;2023-01-06T08:27:51;91.15;;;42.33;;
28174;SDS011;59417;44.788;10.334;2023-01-06T08:30:35;88.20;;;39.80;;
28174;SDS011;59417;44.788;10.334;2023-01-06T08:33:05;83.93;;;41.70;;
28174;SDS011;59417;44.788;10.334;2023-01-06T08:35:37;86.20;;;39.58;;
28174;SDS011;59417;44.788;10.334;2023-01-06T08:38:15;80.13;;;39.35;;
28174;SDS011;59417;44.788;10.334;2023-01-06T08:40:41;85.88;;;38.88;;
28174;SDS011;59417;44.788;10.334;2023-01-06T08:44:17;80.28;;;38.45;;
28174;SDS011;59417;44.788;10.334;2023-01-06T08:46:49;76.47;;;38.90;;
28174;SDS011;59417;44.788;10.334;2023-01-06T08:49:46;74.43;;;37.38;;
28174;SDS011;59417;44.788;10.334;2023-01-06T08:52:24;80.97;;;41.10;;
28174;SDS011;59417;44.788;10.334;2023-01-06T08:54:53;73.13;;;38.00;;
28174;SDS011;59417;44.788;10.334;2023-01-06T09:00:38;75.93;;;38.38;;
28174;SDS011;59417;44.788;10.334;2023-01-06T09:03:13;80.18;;;38.83;;
28174;SDS011;59417;44.788;10.334;2023-01-06T09:05:39;68.50;;;38.03;;
28174;SDS011;59417;44.788;10.334;2023-01-06T09:08:05;69.30;;;33.65;;
28174;SDS011;59417;44.788;10.334;2023-01-06T09:10:31;57.67;;;32.30;;
28174;SDS011;59417;44.788;10.334;2023-01-06T09:13:00;62.67;;;32.47;;
28174;SDS011;59417;44.788;10.334;2023-01-06T09:15:26;47.13;;;28.05;;
28174;SDS011;59417;44.788;10.334;2023-01-06T09:18:29;52.22;;;28.48;;
28174;SDS011;59417;44.788;10.334;2023-01-06T09:22:13;47.05;;;26.10;;
28174;SDS011;59417;44.788;10.334;2023-01-06T09:24:35;42.72;;;23.75;;
28174;SDS011;59417;44.788;10.334;2023-01-06T09:27:01;43.42;;;25.20;;
28174;SDS011;59417;44.788;10.334;2023-01-06T09:29:27;43.35;;;24.75;;
28174;SDS011;59417;44.788;10.334;2023-01-06T09:31:53;41.92;;;25.60;;
28174;SDS011;59417;44.788;10.334;2023-01-06T09:35:04;43.72;;;25.98;;
28174;SDS011;59417;44.788;10.334;2023-01-06T09:37:14;42.20;;;24.80;;
28174;SDS011;59417;44.788;10.334;2023-01-06T09:39:40;39.72;;;24.50;;
28174;SDS011;59417;44.788;10.334;2023-01-06T09:44:53;40.10;;;23.42;;
28174;SDS011;59417;44.788;10.334;2023-01-06T09:47:21;42.20;;;24.45;;
28174;SDS011;59417;44.788;10.334;2023-01-06T09:53:14;40.08;;;24.08;;
28174;SDS011;59417;44.788;10.334;2023-01-06T09:55:52;38.45;;;23.17;;
28174;SDS011;59417;44.788;10.334;2023-01-06T10:00:54;46.40;;;25.05;;
28174;SDS011;59417;44.788;10.334;2023-01-06T10:03:44;51.83;;;27.40;;
28174;SDS011;59417;44.788;10.334;2023-01-06T10:09:29;42.00;;;25.77;;
28174;SDS011;59417;44.788;10.334;2023-01-06T10:15:17;46.60;;;26.50;;
28174;SDS011;59417;44.788;10.334;2023-01-06T10:17:55;47.63;;;25.60;;
28174;SDS011;59417;44.788;10.334;2023-01-06T10:30:02;48.10;;;27.02;;
28174;SDS011;59417;44.788;10.334;2023-01-06T10:32:32;45.42;;;25.50;;
28174;SDS011;59417;44.788;10.334;2023-01-06T10:35:00;44.50;;;25.80;;
28174;SDS011;59417;44.788;10.334;2023-01-06T10:40:17;47.65;;;26.23;;
28174;SDS011;59417;44.788;10.334;2023-01-06T10:48:06;46.53;;;26.45;;
28174;SDS011;59417;44.788;10.334;2023-01-06T10:50:36;45.92;;;25.17;;
28174;SDS011;59417;44.788;10.334;2023-01-06T10:53:03;52.05;;;26.08;;
28174;SDS011;59417;44.788;10.334;2023-01-06T10:55:43;46.55;;;27.00;;
28174;SDS011;59417;44.788;10.334;2023-01-06T10:58:20;45.28;;;27.48;;
28174;SDS011;59417;44.788;10.334;2023-01-06T11:01:00;56.47;;;27.70;;
28174;SDS011;59417;44.788;10.334;2023-01-06T11:03:32;44.40;;;25.42;;
28174;SDS011;59417;44.788;10.334;2023-01-06T11:08:32;52.53;;;26.88;;
28174;SDS011;59417;44.788;10.334;2023-01-06T11:10:59;47.53;;;26.70;;
28174;SDS011;59417;44.788;10.334;2023-01-06T11:16:03;44.30;;;25.50;;
28174;SDS011;59417;44.788;10.334;2023-01-06T11:18:31;47.40;;;27.33;;
28174;SDS011;59417;44.788;10.334;2023-01-06T11:21:03;47.35;;;25.52;;
28174;SDS011;59417;44.788;10.334;2023-01-06T11:23:34;43.22;;;24.95;;
28174;SDS011;59417;44.788;10.334;2023-01-06T11:28:41;52.75;;;29.20;;
28174;SDS011;59417;44.788;10.334;2023-01-06T11:34:01;48.72;;;27.55;;
28174;SDS011;59417;44.788;10.334;2023-01-06T11:36:30;52.95;;;28.42;;
28174;SDS011;59417;44.788;10.334;2023-01-06T11:47:55;44.90;;;25.75;;
28174;SDS011;59417;44.788;10.334;2023-01-06T11:50:25;44.67;;;26.48;;
28174;SDS011;59417;44.788;10.334;2023-01-06T11:52:59;42.17;;;23.90;;
28174;SDS011;59417;44.788;10.334;2023-01-06T11:55:27;41.33;;;23.60;;
28174;SDS011;59417;44.788;10.334;2023-01-06T11:57:56;44.60;;;23.60;;
28174;SDS011;59417;44.788;10.334;2023-01-06T12:00:44;42.60;;;22.15;;
28174;SDS011;59417;44.788;10.334;2023-01-06T12:03:30;35.05;;;21.00;;
28174;SDS011;59417;44.788;10.334;2023-01-06T12:11:18;38.08;;;20.35;;
28174;SDS011;59417;44.788;10.334;2023-01-06T12:13:51;42.22;;;21.70;;
28174;SDS011;59417;44.788;10.334;2023-01-06T12:16:19;39.63;;;21.58;;
28174;SDS011;59417;44.788;10.334;2023-01-06T12:18:59;46.72;;;23.50;;
28174;SDS011;59417;44.788;10.334;2023-01-06T12:21:26;39.53;;;21.10;;
28174;SDS011;59417;44.788;10.334;2023-01-06T12:23:56;39.17;;;22.60;;
28174;SDS011;59417;44.788;10.334;2023-01-06T12:26:24;42.58;;;20.52;;
28174;SDS011;59417;44.788;10.334;2023-01-06T12:28:53;41.10;;;22.05;;
28174;SDS011;59417;44.788;10.334;2023-01-06T12:31:29;43.50;;;23.33;;
28174;SDS011;59417;44.788;10.334;2023-01-06T12:34:28;34.83;;;20.70;;
28174;SDS011;59417;44.788;10.334;2023-01-06T12:37:14;41.50;;;21.90;;
28174;SDS011;59417;44.788;10.334;2023-01-06T12:39:56;42.42;;;23.48;;
28174;SDS011;59417;44.788;10.334;2023-01-06T12:45:33;48.90;;;25.45;;
28174;SDS011;59417;44.788;10.334;2023-01-06T12:53:49;51.13;;;27.60;;
28174;SDS011;59417;44.788;10.334;2023-01-06T12:59:07;56.00;;;29.45;;
28174;SDS011;59417;44.788;10.334;2023-01-06T13:07:41;56.80;;;32.03;;
28174;SDS011;59417;44.788;10.334;2023-01-06T13:15:45;52.72;;;32.33;;
28174;SDS011;59417;44.788;10.334;2023-01-06T13:29:12;56.55;;;34.42;;
28174;SDS011;59417;44.788;10.334;2023-01-06T13:40:24;54.50;;;32.08;;
28174;SDS011;59417;44.788;10.334;2023-01-06T13:43:31;57.47;;;33.40;;
28174;SDS011;59417;44.788;10.334;2023-01-06T13:46:10;54.92;;;33.67;;
28174;SDS011;59417;44.788;10.334;2023-01-06T13:48:41;52.28;;;31.75;;
28174;SDS011;59417;44.788;10.334;2023-01-06T13:53:41;56.78;;;33.92;;
28174;SDS011;59417;44.788;10.334;2023-01-06T13:58:38;59.15;;;35.40;;
28174;SDS011;59417;44.788;10.334;2023-01-06T14:03:38;56.00;;;33.90;;
28174;SDS011;59417;44.788;10.334;2023-01-06T14:06:08;65.70;;;34.75;;
28174;SDS011;59417;44.788;10.334;2023-01-06T14:08:55;54.50;;;34.05;;
28174;SDS011;59417;44.788;10.334;2023-01-06T14:11:32;56.58;;;34.08;;
28174;SDS011;59417;44.788;10.334;2023-01-06T14:14:03;54.53;;;34.65;;
28174;SDS011;59417;44.788;10.334;2023-01-06T14:16:52;63.00;;;34.42;;
28174;SDS011;59417;44.788;10.334;2023-01-06T14:19:19;64.35;;;36.88;;
28174;SDS011;59417;44.788;10.334;2023-01-06T14:21:48;64.85;;;38.25;;
28174;SDS011;59417;44.788;10.334;2023-01-06T14:24:19;60.22;;;35.55;;
28174;SDS011;59417;44.788;10.334;2023-01-06T14:26:54;60.33;;;37.75;;
28174;SDS011;59417;44.788;10.334;2023-01-06T14:32:07;67.35;;;37.70;;
28174;SDS011;59417;44.788;10.334;2023-01-06T14:38:04;62.77;;;40.13;;
28174;SDS011;59417;44.788;10.334;2023-01-06T14:40:38;69.70;;;39.00;;
28174;SDS011;59417;44.788;10.334;2023-01-06T14:46:52;68.75;;;39.22;;
28174;SDS011;59417;44.788;10.334;2023-01-06T14:53:05;75.82;;;40.80;;
28174;SDS011;59417;44.788;10.334;2023-01-06T14:55:42;64.07;;;39.90;;
28174;SDS011;59417;44.788;10.334;2023-01-06T15:00:57;75.28;;;41.13;;
28174;SDS011;59417;44.788;10.334;2023-01-06T15:03:29;65.60;;;39.38;;
28174;SDS011;59417;44.788;10.334;2023-01-06T15:06:15;65.78;;;38.70;;
28174;SDS011;59417;44.788;10.334;2023-01-06T15:08:47;64.78;;;39.03;;
28174;SDS011;59417;44.788;10.334;2023-01-06T15:11:19;81.18;;;41.67;;
28174;SDS011;59417;44.788;10.334;2023-01-06T15:13:48;66.75;;;41.17;;
28174;SDS011;59417;44.788;10.334;2023-01-06T15:16:17;67.97;;;39.03;;
28174;SDS011;59417;44.788;10.334;2023-01-06T15:19:00;69.45;;;39.08;;
28174;SDS011;59417;44.788;10.334;2023-01-06T15:21:26;66.60;;;39.30;;
28174;SDS011;59417;44.788;10.334;2023-01-06T15:23:52;69.72;;;40.88;;
28174;SDS011;59417;44.788;10.334;2023-01-06T15:26:22;71.50;;;39.10;;
28174;SDS011;59417;44.788;10.334;2023-01-06T15:28:57;65.93;;;39.85;;
28174;SDS011;59417;44.788;10.334;2023-01-06T15:31:38;77.65;;;41.60;;
28174;SDS011;59417;44.788;10.334;2023-01-06T15:34:06;72.30;;;40.40;;
28174;SDS011;59417;44.788;10.334;2023-01-06T15:36:34;69.38;;;38.95;;
28174;SDS011;59417;44.788;10.334;2023-01-06T15:41:30;72.03;;;40.17;;
28174;SDS011;59417;44.788;10.334;2023-01-06T15:43:58;72.30;;;40.03;;
28174;SDS011;59417;44.788;10.334;2023-01-06T15:46:25;68.93;;;40.55;;
28174;SDS011;59417;44.788;10.334;2023-01-06T15:49:00;68.13;;;37.78;;
28174;SDS011;59417;44.788;10.334;2023-01-06T15:51:30;65.82;;;38.60;;
28174;SDS011;59417;44.788;10.334;2023-01-06T15:53:56;63.53;;;37.35;;
28174;SDS011;59417;44.788;10.334;2023-01-06T15:56:24;64.53;;;36.88;;
28174;SDS011;59417;44.788;10.334;2023-01-06T15:58:53;71.55;;;38.80;;
28174;SDS011;59417;44.788;10.334;2023-01-06T16:01:20;63.78;;;37.08;;
28174;SDS011;59417;44.788;10.334;2023-01-06T16:03:52;67.55;;;37.65;;
28174;SDS011;59417;44.788;10.334;2023-01-06T16:06:32;66.00;;;39.67;;
28174;SDS011;59417;44.788;10.334;2023-01-06T16:19:24;64.13;;;41.38;;
28174;SDS011;59417;44.788;10.334;2023-01-06T16:26:50;71.63;;;41.05;;
28174;SDS011;59417;44.788;10.334;2023-01-06T16:32:57;69.07;;;38.30;;
28174;SDS011;59417;44.788;10.334;2023-01-06T16:36:02;64.90;;;37.35;;
28174;SDS011;59417;44.788;10.334;2023-01-06T16:45:40;74.20;;;42.60;;
28174;SDS011;59417;44.788;10.334;2023-01-06T16:48:47;77.40;;;41.70;;
28174;SDS011;59417;44.788;10.334;2023-01-06T16:51:15;70.90;;;39.30;;
28174;SDS011;59417;44.788;10.334;2023-01-06T16:53:43;70.13;;;39.42;;
28174;SDS011;59417;44.788;10.334;2023-01-06T16:56:13;70.38;;;39.97;;
28174;SDS011;59417;44.788;10.334;2023-01-06T16:58:41;62.38;;;38.70;;
28174;SDS011;59417;44.788;10.334;2023-01-06T17:01:14;64.70;;;38.92;;
28174;SDS011;59417;44.788;10.334;2023-01-06T17:03:54;67.20;;;38.80;;
28174;SDS011;59417;44.788;10.334;2023-01-06T17:06:28;62.80;;;39.20;;
28174;SDS011;59417;44.788;10.334;2023-01-06T17:09:00;67.20;;;39.92;;
28174;SDS011;59417;44.788;10.334;2023-01-06T17:11:40;70.88;;;40.15;;
28174;SDS011;59417;44.788;10.334;2023-01-06T17:14:13;71.65;;;40.40;;
28174;SDS011;59417;44.788;10.334;2023-01-06T17:16:41;67.90;;;40.13;;
28174;SDS011;59417;44.788;10.334;2023-01-06T17:19:23;75.68;;;39.60;;
28174;SDS011;59417;44.788;10.334;2023-01-06T17:21:53;69.25;;;39.75;;
28174;SDS011;59417;44.788;10.334;2023-01-06T17:24:27;72.82;;;39.72;;
28174;SDS011;59417;44.788;10.334;2023-01-06T17:27:20;69.00;;;39.53;;
28174;SDS011;59417;44.788;10.334;2023-01-06T17:29:47;69.00;;;39.58;;
28174;SDS011;59417;44.788;10.334;2023-01-06T17:32:47;66.43;;;39.17;;
28174;SDS011;59417;44.788;10.334;2023-01-06T17:37:52;64.32;;;39.30;;
28174;SDS011;59417;44.788;10.334;2023-01-06T17:40:32;61.90;;;39.70;;
28174;SDS011;59417;44.788;10.334;2023-01-06T17:43:27;70.05;;;39.58;;
28174;SDS011;59417;44.788;10.334;2023-01-06T17:45:56;64.20;;;37.30;;
28174;SDS011;59417;44.788;10.334;2023-01-06T17:48:28;65.05;;;38.50;;
28174;SDS011;59417;44.788;10.334;2023-01-06T17:50:56;67.25;;;39.67;;
28174;SDS011;59417;44.788;10.334;2023-01-06T17:53:27;60.95;;;36.38;;
28174;SDS011;59417;44.788;10.334;2023-01-06T17:56:20;60.63;;;37.67;;
28174;SDS011;59417;44.788;10.334;2023-01-06T17:58:59;61.38;;;36.78;;
28174;SDS011;59417;44.788;10.334;2023-01-06T18:01:34;62.95;;;36.65;;
28174;SDS011;59417;44.788;10.334;2023-01-06T18:04:01;62.60;;;38.63;;
28174;SDS011;59417;44.788;10.334;2023-01-06T18:06:48;63.17;;;38.47;;
28174;SDS011;59417;44.788;10.334;2023-01-06T18:09:17;63.60;;;39.10;;
28174;SDS011;59417;44.788;10.334;2023-01-06T18:11:46;63.15;;;38.40;;
28174;SDS011;59417;44.788;10.334;2023-01-06T18:14:32;59.38;;;36.67;;
28174;SDS011;59417;44.788;10.334;2023-01-06T18:17:23;59.78;;;36.08;;
28174;SDS011;59417;44.788;10.334;2023-01-06T18:20:01;65.43;;;36.92;;
28174;SDS011;59417;44.788;10.334;2023-01-06T18:22:30;66.35;;;38.53;;